createdAt,value
2018-12-19T00:00:32.593Z,67.95
2018-12-19T00:01:07.285Z,67.51
2018-12-19T00:01:41.897Z,68.08
2018-12-19T00:02:16.480Z,68.56
2018-12-19T00:02:51.705Z,68.65
2018-12-19T00:03:26.887Z,67.91
2018-12-19T00:04:01.585Z,69.09
2018-12-19T00:04:36.239Z,68.29
2018-12-19T00:05:10.838Z,68.83
2018-12-19T00:05:45.439Z,68.85
2018-12-19T00:06:20.033Z,68.28
2018-12-19T00:06:54.644Z,68.44
2018-12-19T00:07:29.281Z,68.49
2018-12-19T00:08:04.336Z,68.59
2018-12-19T00:08:39.118Z,69.12
2018-12-19T00:09:13.750Z,68.78
2018-12-19T00:09:48.369Z,67.95
2018-12-19T00:10:22.952Z,67.82
2018-12-19T00:10:57.702Z,67.68
2018-12-19T00:11:32.389Z,68.72
2018-12-19T00:12:07.028Z,68.50
2018-12-19T00:12:41.728Z,69.66
2018-12-19T00:13:18.382Z,68.91
2018-12-19T00:13:52.972Z,69.97
2018-12-19T00:14:27.771Z,69.54
2018-12-19T00:15:02.542Z,69.41
2018-12-19T00:15:37.247Z,69.04
2018-12-19T00:16:11.890Z,69.50
2018-12-19T00:16:46.476Z,69.04
2018-12-19T00:17:21.093Z,69.70
2018-12-19T00:17:55.742Z,69.46
2018-12-19T00:18:30.357Z,69.02
2018-12-19T00:19:05.037Z,68.83
2018-12-19T00:19:39.661Z,69.67
2018-12-19T00:20:14.278Z,68.97
2018-12-19T00:20:49.512Z,69.46
2018-12-19T00:21:24.171Z,69.29
2018-12-19T00:21:58.800Z,69.92
2018-12-19T00:22:33.434Z,70.11
2018-12-19T00:23:08.025Z,69.86
2018-12-19T00:23:42.678Z,69.23
2018-12-19T00:24:17.297Z,69.72
2018-12-19T00:24:51.942Z,69.96
2018-12-19T00:25:26.951Z,70.35
2018-12-19T00:26:01.973Z,69.71
2018-12-19T00:26:36.580Z,69.29
2018-12-19T00:27:11.335Z,69.71
2018-12-19T00:27:46.266Z,68.79
2018-12-19T00:28:20.857Z,69.44
2018-12-19T00:28:55.677Z,69.87
2018-12-19T00:29:30.432Z,69.68
2018-12-19T00:30:06.489Z,69.27
2018-12-19T00:30:41.497Z,69.51
2018-12-19T00:31:16.090Z,69.75
2018-12-19T00:31:50.769Z,70.28
2018-12-19T00:32:25.435Z,69.38
2018-12-19T00:33:00.092Z,69.88
2018-12-19T00:33:34.915Z,69.13
2018-12-19T00:34:09.625Z,69.09
2018-12-19T00:34:44.245Z,69.58
2018-12-19T00:35:18.965Z,69.37
2018-12-19T00:35:53.565Z,69.55
2018-12-19T00:36:28.311Z,69.78
2018-12-19T00:37:02.924Z,69.63
2018-12-19T00:37:37.500Z,69.09
2018-12-19T00:38:12.094Z,69.88
2018-12-19T00:38:46.723Z,69.43
2018-12-19T00:39:21.352Z,68.83
2018-12-19T00:39:56.199Z,69.51
2018-12-19T00:40:30.923Z,69.58
2018-12-19T00:41:05.507Z,69.78
2018-12-19T00:41:40.106Z,69.94
2018-12-19T00:42:14.814Z,69.74
2018-12-19T00:42:49.471Z,69.95
2018-12-19T00:43:24.159Z,68.88
2018-12-19T00:43:58.944Z,69.55
2018-12-19T00:44:33.648Z,69.79
2018-12-19T00:45:08.778Z,69.45
2018-12-19T00:45:43.452Z,69.34
2018-12-19T00:46:18.069Z,69.99
2018-12-19T00:46:52.793Z,69.97
2018-12-19T00:47:27.467Z,69.02
2018-12-19T00:48:02.089Z,70.25
2018-12-19T00:48:36.857Z,70.54
2018-12-19T00:49:11.611Z,69.97
2018-12-19T00:49:46.264Z,69.83
2018-12-19T00:50:21.060Z,69.19
2018-12-19T00:50:55.709Z,69.25
2018-12-19T00:51:30.418Z,69.05
2018-12-19T00:52:05.155Z,69.47
2018-12-19T00:52:39.847Z,69.00
2018-12-19T00:53:14.437Z,69.10
2018-12-19T00:53:49.029Z,68.71
2018-12-19T00:54:23.634Z,69.51
2018-12-19T00:54:58.451Z,69.12
2018-12-19T00:55:33.665Z,69.14
2018-12-19T00:56:08.293Z,69.39
2018-12-19T00:56:42.881Z,68.89
2018-12-19T00:57:17.489Z,68.62
2018-12-19T00:57:52.088Z,69.97
2018-12-19T00:58:26.770Z,69.51
2018-12-19T00:59:01.421Z,69.72
2018-12-19T00:59:36.176Z,68.80
2018-12-19T01:00:11.692Z,69.77
2018-12-19T01:00:46.318Z,69.07
2018-12-19T01:01:21.662Z,69.82
2018-12-19T01:01:56.780Z,69.95
2018-12-19T01:02:31.513Z,68.86
2018-12-19T01:03:06.143Z,68.67
2018-12-19T01:03:40.733Z,69.02
2018-12-19T01:04:15.357Z,68.50
2018-12-19T01:04:49.960Z,69.17
2018-12-19T01:05:24.668Z,67.88
2018-12-19T01:05:59.379Z,68.79
2018-12-19T01:06:34.116Z,68.43
2018-12-19T01:07:09.239Z,69.32
2018-12-19T01:07:43.945Z,69.00
2018-12-19T01:08:18.648Z,68.59
2018-12-19T01:08:53.377Z,70.06
2018-12-19T01:09:28.263Z,68.50
2018-12-19T01:10:03.218Z,68.40
2018-12-19T01:10:37.926Z,68.40
2018-12-19T01:11:12.684Z,69.09
2018-12-19T01:11:47.339Z,69.21
2018-12-19T01:12:21.970Z,68.81
2018-12-19T01:12:56.650Z,67.85
2018-12-19T01:13:31.909Z,69.00
2018-12-19T01:14:06.738Z,68.08
2018-12-19T01:14:41.371Z,68.12
2018-12-19T01:15:15.999Z,69.24
2018-12-19T01:15:50.692Z,68.61
2018-12-19T01:16:25.345Z,67.78
2018-12-19T01:17:00.133Z,68.80
2018-12-19T01:17:34.787Z,67.89
2018-12-19T01:18:09.540Z,68.85
2018-12-19T01:18:44.144Z,68.37
2018-12-19T01:19:18.760Z,67.80
2018-12-19T01:19:53.441Z,68.64
2018-12-19T01:20:28.166Z,67.88
2018-12-19T01:21:02.853Z,67.75
2018-12-19T01:21:37.886Z,68.23
2018-12-19T01:22:12.574Z,68.35
2018-12-19T01:22:47.776Z,68.45
2018-12-19T01:23:22.412Z,68.61
2018-12-19T01:23:57.069Z,67.69
2018-12-19T01:24:31.739Z,67.92
2018-12-19T01:25:06.871Z,68.32
2018-12-19T01:25:41.945Z,68.42
2018-12-19T01:26:16.562Z,69.06
2018-12-19T01:26:51.188Z,69.28
2018-12-19T01:27:25.804Z,69.62
2018-12-19T01:28:00.532Z,69.75
2018-12-19T01:28:35.263Z,69.69
2018-12-19T01:29:09.861Z,68.92
2018-12-19T01:29:44.480Z,69.13
2018-12-19T01:30:19.130Z,68.84
2018-12-19T01:30:53.750Z,69.43
2018-12-19T01:31:28.471Z,70.06
2018-12-19T01:32:03.257Z,70.01
2018-12-19T01:32:37.902Z,68.94
2018-12-19T01:33:12.539Z,68.95
2018-12-19T01:33:47.117Z,69.11
2018-12-19T01:34:21.817Z,69.00
2018-12-19T01:34:56.488Z,69.51
2018-12-19T01:35:31.230Z,70.23
2018-12-19T01:36:06.003Z,68.96
2018-12-19T01:36:40.676Z,69.22
2018-12-19T01:37:15.308Z,69.48
2018-12-19T01:37:49.908Z,70.29
2018-12-19T01:38:24.627Z,70.03
2018-12-19T01:38:59.374Z,69.33
2018-12-19T01:39:34.097Z,70.26
2018-12-19T01:40:08.803Z,69.42
2018-12-19T01:40:43.435Z,69.47
2018-12-19T01:41:18.104Z,69.58
2018-12-19T01:41:52.829Z,69.16
2018-12-19T01:42:27.614Z,70.09
2018-12-19T01:43:02.489Z,68.92
2018-12-19T01:43:37.290Z,68.92
2018-12-19T01:44:11.888Z,69.65
2018-12-19T01:44:46.548Z,68.86
2018-12-19T01:45:21.722Z,70.05
2018-12-19T01:45:56.352Z,70.38
2018-12-19T01:46:31.109Z,69.57
2018-12-19T01:47:05.688Z,70.29
2018-12-19T01:47:40.553Z,69.73
2018-12-19T01:48:15.169Z,69.62
2018-12-19T01:48:49.783Z,69.06
2018-12-19T01:49:24.916Z,68.52
2018-12-19T01:49:59.581Z,68.66
2018-12-19T01:50:34.335Z,68.26
2018-12-19T01:51:09.320Z,69.27
2018-12-19T01:51:44.059Z,68.88
2018-12-19T01:52:18.652Z,68.79
2018-12-19T01:52:53.255Z,68.08
2018-12-19T01:53:28.020Z,68.37
2018-12-19T01:54:02.737Z,68.28
2018-12-19T01:54:37.377Z,68.82
2018-12-19T01:55:12.013Z,68.86
2018-12-19T01:55:46.958Z,67.80
2018-12-19T01:56:21.572Z,68.28
2018-12-19T01:56:56.218Z,68.80
2018-12-19T01:57:31.026Z,68.81
2018-12-19T01:58:05.746Z,68.29
2018-12-19T01:58:40.454Z,68.40
2018-12-19T01:59:15.078Z,67.91
2018-12-19T01:59:50.176Z,68.04
2018-12-19T02:00:28.983Z,68.90
2018-12-19T02:01:03.745Z,69.27
2018-12-19T02:01:38.349Z,68.79
2018-12-19T02:02:13.470Z,69.12
2018-12-19T02:02:48.082Z,68.33
2018-12-19T02:03:22.685Z,68.57
2018-12-19T02:03:57.524Z,68.44
2018-12-19T02:04:32.248Z,68.31
2018-12-19T02:05:06.978Z,68.77
2018-12-19T02:05:41.827Z,69.04
2018-12-19T02:06:16.471Z,68.67
2018-12-19T02:06:51.083Z,69.26
2018-12-19T02:07:25.721Z,69.66
2018-12-19T02:08:00.363Z,69.86
2018-12-19T02:08:35.026Z,69.09
2018-12-19T02:09:10.149Z,69.02
2018-12-19T02:09:44.906Z,69.66
2018-12-19T02:10:19.526Z,68.79
2018-12-19T02:10:54.219Z,69.43
2018-12-19T02:11:28.879Z,67.53
2018-12-19T02:12:04.056Z,68.33
2018-12-19T02:12:38.781Z,68.55
2018-12-19T02:13:13.488Z,69.34
2018-12-19T02:13:48.295Z,68.59
2018-12-19T02:14:22.914Z,69.37
2018-12-19T02:14:57.673Z,68.37
2018-12-19T02:15:32.284Z,68.34
2018-12-19T02:16:06.960Z,69.16
2018-12-19T02:16:41.559Z,68.64
2018-12-19T02:17:16.193Z,68.58
2018-12-19T02:17:50.784Z,69.58
2018-12-19T02:18:25.402Z,68.99
2018-12-19T02:19:00.146Z,69.74
2018-12-19T02:19:34.803Z,68.64
2018-12-19T02:20:09.480Z,69.55
2018-12-19T02:20:44.093Z,69.09
2018-12-19T02:21:18.691Z,68.54
2018-12-19T02:21:53.414Z,68.08
2018-12-19T02:22:28.585Z,68.22
2018-12-19T02:23:03.312Z,68.95
2018-12-19T02:23:38.257Z,68.77
2018-12-19T02:24:12.909Z,67.79
2018-12-19T02:24:47.630Z,68.92
2018-12-19T02:25:22.244Z,68.48
2018-12-19T02:25:57.076Z,68.00
2018-12-19T02:26:31.776Z,68.55
2018-12-19T02:27:06.426Z,68.13
2018-12-19T02:27:41.092Z,68.17
2018-12-19T02:28:15.695Z,68.37
2018-12-19T02:28:50.750Z,67.76
2018-12-19T02:29:25.349Z,68.26
2018-12-19T02:30:00.125Z,68.33
2018-12-19T02:30:35.075Z,68.43
2018-12-19T02:31:10.057Z,68.61
2018-12-19T02:31:44.651Z,68.14
2018-12-19T02:32:19.342Z,68.03
2018-12-19T02:32:53.953Z,68.54
2018-12-19T02:33:28.729Z,68.21
2018-12-19T02:34:03.984Z,68.99
2018-12-19T02:34:38.700Z,68.35
2018-12-19T02:35:13.826Z,68.53
2018-12-19T02:35:48.421Z,68.68
2018-12-19T02:36:23.425Z,69.01
2018-12-19T02:36:58.076Z,68.11
2018-12-19T02:37:32.722Z,69.00
2018-12-19T02:38:07.436Z,68.05
2018-12-19T02:38:42.063Z,68.51
2018-12-19T02:39:16.657Z,67.93
2018-12-19T02:39:51.279Z,68.70
2018-12-19T02:40:25.925Z,68.38
2018-12-19T02:41:00.665Z,68.46
2018-12-19T02:41:35.324Z,67.76
2018-12-19T02:42:10.401Z,68.39
2018-12-19T02:42:45.021Z,68.30
2018-12-19T02:43:19.623Z,68.41
2018-12-19T02:43:54.287Z,68.15
2018-12-19T02:44:28.956Z,68.55
2018-12-19T02:45:04.656Z,68.22
2018-12-19T02:45:39.282Z,69.14
2018-12-19T02:46:13.918Z,69.07
2018-12-19T02:46:54.865Z,68.83
2018-12-19T02:47:29.600Z,68.23
2018-12-19T02:48:04.243Z,68.06
2018-12-19T02:48:38.891Z,68.46
2018-12-19T02:49:13.596Z,68.56
2018-12-19T02:49:48.221Z,69.11
2018-12-19T02:50:22.835Z,68.09
2018-12-19T02:50:58.292Z,68.65
2018-12-19T02:51:32.907Z,67.94
2018-12-19T02:52:07.158Z,67.90
2018-12-19T02:52:41.769Z,68.57
2018-12-19T02:53:16.398Z,67.96
2018-12-19T02:53:51.050Z,67.57
2018-12-19T02:54:25.773Z,67.19
2018-12-19T02:55:00.456Z,68.15
2018-12-19T02:55:35.164Z,68.06
2018-12-19T02:56:09.805Z,68.55
2018-12-19T02:56:44.425Z,68.28
2018-12-19T02:57:19.054Z,67.89
2018-12-19T02:57:54.002Z,68.71
2018-12-19T02:58:28.946Z,68.62
2018-12-19T02:59:03.669Z,68.73
2018-12-19T02:59:38.297Z,68.83
2018-12-19T03:00:12.940Z,70.14
2018-12-19T03:00:47.539Z,69.02
2018-12-19T03:01:22.162Z,69.15
2018-12-19T03:01:56.924Z,69.65
2018-12-19T03:02:31.615Z,69.24
2018-12-19T03:03:06.278Z,69.12
2018-12-19T03:03:40.923Z,69.87
2018-12-19T03:04:15.543Z,69.89
2018-12-19T03:04:50.187Z,69.58
2018-12-19T03:05:24.890Z,68.96
2018-12-19T03:05:59.616Z,69.38
2018-12-19T03:06:34.306Z,69.05
2018-12-19T03:07:09.047Z,69.30
2018-12-19T03:07:43.724Z,69.18
2018-12-19T03:08:18.340Z,69.21
2018-12-19T03:08:52.968Z,68.55
2018-12-19T03:09:27.699Z,69.24
2018-12-19T03:10:02.357Z,69.86
2018-12-19T03:10:37.074Z,69.74
2018-12-19T03:11:12.354Z,69.96
2018-12-19T03:11:46.993Z,68.71
2018-12-19T03:12:21.586Z,68.66
2018-12-19T03:12:56.250Z,69.33
2018-12-19T03:13:31.451Z,68.58
2018-12-19T03:14:06.103Z,69.56
2018-12-19T03:14:40.693Z,69.12
2018-12-19T03:15:15.320Z,68.94
2018-12-19T03:15:49.944Z,69.07
2018-12-19T03:16:24.898Z,69.46
2018-12-19T03:16:59.626Z,69.29
2018-12-19T03:17:34.312Z,69.90
2018-12-19T03:18:08.973Z,70.00
2018-12-19T03:18:43.564Z,70.52
2018-12-19T03:19:18.305Z,69.42
2018-12-19T03:19:52.946Z,70.09
2018-12-19T03:20:27.610Z,69.16
2018-12-19T03:21:02.633Z,69.10
2018-12-19T03:21:37.335Z,68.65
2018-12-19T03:22:11.950Z,68.69
2018-12-19T03:22:46.591Z,69.01
2018-12-19T03:23:21.173Z,69.22
2018-12-19T03:23:55.792Z,68.45
2018-12-19T03:24:30.677Z,68.40
2018-12-19T03:25:06.211Z,68.71
2018-12-19T03:25:40.820Z,69.14
2018-12-19T03:26:15.407Z,68.71
2018-12-19T03:26:56.368Z,69.12
2018-12-19T03:27:31.237Z,69.24
2018-12-19T03:28:06.031Z,69.23
2018-12-19T03:28:40.692Z,68.97
2018-12-19T03:29:15.412Z,68.87
2018-12-19T03:29:50.039Z,69.52
2018-12-19T03:30:24.770Z,69.62
2018-12-19T03:30:59.468Z,68.84
2018-12-19T03:31:34.132Z,68.97
2018-12-19T03:32:08.807Z,69.25
2018-12-19T03:32:43.422Z,70.08
2018-12-19T03:33:18.036Z,69.05
2018-12-19T03:33:52.658Z,70.12
2018-12-19T03:34:27.355Z,69.67
2018-12-19T03:35:02.019Z,69.37
2018-12-19T03:35:36.724Z,68.66
2018-12-19T03:36:11.398Z,69.64
2018-12-19T03:36:46.028Z,69.64
2018-12-19T03:37:20.627Z,69.20
2018-12-19T03:37:55.245Z,69.43
2018-12-19T03:38:30.238Z,69.43
2018-12-19T03:39:07.498Z,68.99
2018-12-19T03:39:42.070Z,68.85
2018-12-19T03:40:16.784Z,68.76
2018-12-19T03:40:51.491Z,68.87
2018-12-19T03:41:26.136Z,68.75
2018-12-19T03:42:00.755Z,69.86
2018-12-19T03:42:35.432Z,69.96
2018-12-19T03:43:10.061Z,69.25
2018-12-19T03:43:44.802Z,69.02
2018-12-19T03:44:19.485Z,69.69
2018-12-19T03:44:54.097Z,69.80
2018-12-19T03:45:28.791Z,70.13
2018-12-19T03:46:03.413Z,70.30
2018-12-19T03:46:38.484Z,69.77
2018-12-19T03:47:13.310Z,70.79
2018-12-19T03:47:47.910Z,70.42
2018-12-19T03:48:27.951Z,70.83
2018-12-19T03:49:02.594Z,71.03
2018-12-19T03:49:38.012Z,69.91
2018-12-19T03:50:12.953Z,70.86
2018-12-19T03:50:47.623Z,70.50
2018-12-19T03:51:22.244Z,71.02
2018-12-19T03:51:56.928Z,70.38
2018-12-19T03:52:31.684Z,71.09
2018-12-19T03:53:06.393Z,70.48
2018-12-19T03:53:40.992Z,70.38
2018-12-19T03:54:15.915Z,70.45
2018-12-19T03:54:50.539Z,71.06
2018-12-19T03:55:25.162Z,70.89
2018-12-19T03:55:59.957Z,70.29
2018-12-19T03:56:34.610Z,70.18
2018-12-19T03:57:09.928Z,70.48
2018-12-19T03:57:44.660Z,71.09
2018-12-19T03:58:19.367Z,70.99
2018-12-19T03:58:54.078Z,71.07
2018-12-19T03:59:28.931Z,70.53
2018-12-19T04:00:04.811Z,70.76
2018-12-19T04:00:39.448Z,71.21
2018-12-19T04:01:14.062Z,70.16
2018-12-19T04:01:48.785Z,70.44
2018-12-19T04:02:23.425Z,70.07
2018-12-19T04:02:58.288Z,69.92
2018-12-19T04:03:33.220Z,70.08
2018-12-19T04:04:07.816Z,70.37
2018-12-19T04:04:42.507Z,70.38
2018-12-19T04:05:17.112Z,70.50
2018-12-19T04:05:51.759Z,69.91
2018-12-19T04:06:26.424Z,70.40
2018-12-19T04:07:01.445Z,70.06
2018-12-19T04:07:36.072Z,69.40
2018-12-19T04:08:10.665Z,70.53
2018-12-19T04:08:45.277Z,69.86
2018-12-19T04:09:19.906Z,69.94
2018-12-19T04:09:57.983Z,69.77
2018-12-19T04:10:31.332Z,69.33
2018-12-19T04:11:06.488Z,70.26
2018-12-19T04:11:41.078Z,70.57
2018-12-19T04:12:15.783Z,70.37
2018-12-19T04:12:50.386Z,70.17
2018-12-19T04:13:25.019Z,69.87
2018-12-19T04:13:59.699Z,69.32
2018-12-19T04:14:34.462Z,69.76
2018-12-19T04:15:09.120Z,69.15
2018-12-19T04:15:43.740Z,69.73
2018-12-19T04:16:18.362Z,69.06
2018-12-19T04:16:53.093Z,69.43
2018-12-19T04:17:27.838Z,70.07
2018-12-19T04:18:02.610Z,70.10
2018-12-19T04:18:37.544Z,70.38
2018-12-19T04:19:12.189Z,69.46
2018-12-19T04:19:47.292Z,70.15
2018-12-19T04:20:21.902Z,69.66
2018-12-19T04:20:56.548Z,69.87
2018-12-19T04:21:31.238Z,70.14
2018-12-19T04:22:05.889Z,69.58
2018-12-19T04:22:40.536Z,69.52
2018-12-19T04:23:15.165Z,69.68
2018-12-19T04:23:49.749Z,69.99
2018-12-19T04:24:24.615Z,70.37
2018-12-19T04:24:59.375Z,70.15
2018-12-19T04:25:34.147Z,70.82
2018-12-19T04:26:08.763Z,70.44
2018-12-19T04:26:43.474Z,70.35
2018-12-19T04:27:18.076Z,70.00
2018-12-19T04:27:52.696Z,69.89
2018-12-19T04:28:27.865Z,70.10
2018-12-19T04:29:02.562Z,69.98
2018-12-19T04:29:37.739Z,69.26
2018-12-19T04:30:12.373Z,69.05
2018-12-19T04:30:46.976Z,69.74
2018-12-19T04:31:21.699Z,69.74
2018-12-19T04:31:56.358Z,69.46
2018-12-19T04:32:31.547Z,69.13
2018-12-19T04:33:06.281Z,70.48
2018-12-19T04:33:40.902Z,69.85
2018-12-19T04:34:15.567Z,69.73
2018-12-19T04:34:50.232Z,69.41
2018-12-19T04:35:24.936Z,69.67
2018-12-19T04:35:59.625Z,70.19
2018-12-19T04:36:34.287Z,69.68
2018-12-19T04:37:08.966Z,69.70
2018-12-19T04:37:44.159Z,70.39
2018-12-19T04:38:19.134Z,70.11
2018-12-19T04:38:53.760Z,68.79
2018-12-19T04:39:28.491Z,69.10
2018-12-19T04:40:05.716Z,69.43
2018-12-19T04:40:40.368Z,68.82
2018-12-19T04:41:15.532Z,68.60
2018-12-19T04:41:50.180Z,68.69
2018-12-19T04:42:24.769Z,69.30
2018-12-19T04:42:59.496Z,68.79
2018-12-19T04:43:34.129Z,68.96
2018-12-19T04:44:08.735Z,69.37
2018-12-19T04:44:43.378Z,69.01
2018-12-19T04:45:18.053Z,68.96
2018-12-19T04:45:52.653Z,69.70
2018-12-19T04:46:27.298Z,68.33
2018-12-19T04:47:01.928Z,68.91
2018-12-19T04:47:36.525Z,69.04
2018-12-19T04:48:11.167Z,69.10
2018-12-19T04:48:45.874Z,69.35
2018-12-19T04:49:20.618Z,69.23
2018-12-19T04:49:55.266Z,69.19
2018-12-19T04:50:29.967Z,70.08
2018-12-19T04:51:04.638Z,69.52
2018-12-19T04:51:39.287Z,68.69
2018-12-19T04:52:13.857Z,69.40
2018-12-19T04:52:48.469Z,68.80
2018-12-19T04:53:23.050Z,69.88
2018-12-19T04:53:57.738Z,68.50
2018-12-19T04:54:32.423Z,68.97
2018-12-19T04:55:07.661Z,69.59
2018-12-19T04:55:42.268Z,68.38
2018-12-19T04:56:16.874Z,68.38
2018-12-19T04:56:51.498Z,68.84
2018-12-19T04:57:26.108Z,68.17
2018-12-19T04:58:00.805Z,68.85
2018-12-19T04:58:35.464Z,69.02
2018-12-19T04:59:10.161Z,67.96
2018-12-19T04:59:45.008Z,68.53
2018-12-19T05:00:19.625Z,68.62
2018-12-19T05:00:54.728Z,68.23
2018-12-19T05:01:29.488Z,68.97
2018-12-19T05:02:04.696Z,69.69
2018-12-19T05:02:39.291Z,69.90
2018-12-19T05:03:13.996Z,68.72
2018-12-19T05:03:48.600Z,69.97
2018-12-19T05:04:23.253Z,69.38
2018-12-19T05:04:58.072Z,70.22
2018-12-19T05:05:33.092Z,69.43
2018-12-19T05:06:07.699Z,69.01
2018-12-19T05:06:42.285Z,69.67
2018-12-19T05:07:17.257Z,69.56
2018-12-19T05:07:52.356Z,69.57
2018-12-19T05:08:27.479Z,69.12
2018-12-19T05:09:02.100Z,69.28
2018-12-19T05:09:37.137Z,69.06
2018-12-19T05:10:12.536Z,69.45
2018-12-19T05:10:47.663Z,69.11
2018-12-19T05:11:22.289Z,69.25
2018-12-19T05:11:57.664Z,69.63
2018-12-19T05:12:34.214Z,69.19
2018-12-19T05:13:08.812Z,68.76
2018-12-19T05:13:43.487Z,69.33
2018-12-19T05:14:18.423Z,68.61
2018-12-19T05:14:53.489Z,69.07
2018-12-19T05:15:28.596Z,68.95
2018-12-19T05:16:03.306Z,68.57
2018-12-19T05:16:38.022Z,68.24
2018-12-19T05:17:12.612Z,68.01
2018-12-19T05:17:47.339Z,69.16
2018-12-19T05:18:21.949Z,68.42
2018-12-19T05:18:56.575Z,68.46
2018-12-19T05:19:31.330Z,68.83
2018-12-19T05:20:08.427Z,68.74
2018-12-19T05:20:43.035Z,69.52
2018-12-19T05:21:17.668Z,69.37
2018-12-19T05:21:52.268Z,68.52
2018-12-19T05:22:26.928Z,68.98
2018-12-19T05:23:01.682Z,69.06
2018-12-19T05:23:36.309Z,69.51
2018-12-19T05:24:10.978Z,69.54
2018-12-19T05:24:45.694Z,68.83
2018-12-19T05:25:20.302Z,69.02
2018-12-19T05:25:55.022Z,68.41
2018-12-19T05:26:29.909Z,68.52
2018-12-19T05:27:04.603Z,69.34
2018-12-19T05:27:39.361Z,69.77
2018-12-19T05:28:13.956Z,70.07
2018-12-19T05:28:48.603Z,70.13
2018-12-19T05:29:23.341Z,68.67
2018-12-19T05:29:58.043Z,68.70
2018-12-19T05:30:32.769Z,68.66
2018-12-19T05:31:07.502Z,69.46
2018-12-19T05:31:42.102Z,69.18
2018-12-19T05:32:16.720Z,68.83
2018-12-19T05:32:51.422Z,68.81
2018-12-19T05:33:26.153Z,69.17
2018-12-19T05:34:00.910Z,68.63
2018-12-19T05:34:36.001Z,68.96
2018-12-19T05:35:10.633Z,70.17
2018-12-19T05:35:45.283Z,68.12
2018-12-19T05:36:19.908Z,68.64
2018-12-19T05:36:54.726Z,69.33
2018-12-19T05:37:29.485Z,68.24
2018-12-19T05:38:04.151Z,68.96
2018-12-19T05:38:38.775Z,69.21
2018-12-19T05:39:13.395Z,69.33
2018-12-19T05:39:48.010Z,70.30
2018-12-19T05:40:22.664Z,70.80
2018-12-19T05:40:57.399Z,70.47
2018-12-19T05:41:32.079Z,69.78
2018-12-19T05:42:06.775Z,68.92
2018-12-19T05:42:41.372Z,69.38
2018-12-19T05:43:15.977Z,68.81
2018-12-19T05:43:50.576Z,69.27
2018-12-19T05:44:25.223Z,68.54
2018-12-19T05:44:59.937Z,68.83
2018-12-19T05:45:34.676Z,68.78
2018-12-19T05:46:09.401Z,67.96
2018-12-19T05:46:44.098Z,68.75
2018-12-19T05:47:19.069Z,69.02
2018-12-19T05:47:53.725Z,69.19
2018-12-19T05:48:28.458Z,69.40
2018-12-19T05:49:03.261Z,69.75
2018-12-19T05:49:38.277Z,70.15
2018-12-19T05:50:13.754Z,70.78
2018-12-19T05:50:48.443Z,69.06
2018-12-19T05:51:23.099Z,69.41
2018-12-19T05:51:57.769Z,69.86
2018-12-19T05:52:32.927Z,69.06
2018-12-19T05:53:08.161Z,68.05
2018-12-19T05:53:42.787Z,69.37
2018-12-19T05:54:18.059Z,70.19
2018-12-19T05:54:52.921Z,70.23
2018-12-19T05:55:27.754Z,71.67
2018-12-19T05:56:02.456Z,71.19
2018-12-19T05:56:37.581Z,71.09
2018-12-19T05:57:12.522Z,70.58
2018-12-19T05:57:47.150Z,69.43
2018-12-19T05:58:21.770Z,70.05
2018-12-19T05:58:56.418Z,70.92
2018-12-19T05:59:31.474Z,69.85
2018-12-19T06:00:08.469Z,70.89
2018-12-19T06:00:43.134Z,71.13
2018-12-19T06:01:17.755Z,70.13
2018-12-19T06:01:52.388Z,70.26
2018-12-19T06:02:27.172Z,70.23
2018-12-19T06:03:01.894Z,69.05
2018-12-19T06:03:37.165Z,70.44
2018-12-19T06:04:11.832Z,69.59
2018-12-19T06:04:46.483Z,69.46
2018-12-19T06:05:21.097Z,69.52
2018-12-19T06:05:55.824Z,69.61
2018-12-19T06:06:30.473Z,69.28
2018-12-19T06:07:05.148Z,70.10
2018-12-19T06:07:39.744Z,70.58
2018-12-19T06:08:14.385Z,69.20
2018-12-19T06:08:49.061Z,69.68
2018-12-19T06:09:23.730Z,69.93
2018-12-19T06:10:05.075Z,69.93
2018-12-19T06:10:39.708Z,69.55
2018-12-19T06:11:14.396Z,69.21
2018-12-19T06:11:48.989Z,68.71
2018-12-19T06:12:24.151Z,69.25
2018-12-19T06:12:58.880Z,69.31
2018-12-19T06:13:33.631Z,69.12
2018-12-19T06:14:08.241Z,69.54
2018-12-19T06:14:42.889Z,69.08
2018-12-19T06:15:17.493Z,68.03
2018-12-19T06:15:52.127Z,69.13
2018-12-19T06:16:26.862Z,69.14
2018-12-19T06:17:01.549Z,69.58
2018-12-19T06:17:36.265Z,69.06
2018-12-19T06:18:10.891Z,69.61
2018-12-19T06:18:45.609Z,68.25
2018-12-19T06:19:20.241Z,69.19
2018-12-19T06:19:54.894Z,68.58
2018-12-19T06:20:29.692Z,68.70
2018-12-19T06:21:04.979Z,68.79
2018-12-19T06:21:39.602Z,69.18
2018-12-19T06:22:14.214Z,69.12
2018-12-19T06:22:48.812Z,69.42
2018-12-19T06:23:23.430Z,68.80
2018-12-19T06:23:58.144Z,68.05
2018-12-19T06:24:32.961Z,68.56
2018-12-19T06:25:08.055Z,69.03
2018-12-19T06:25:43.147Z,69.21
2018-12-19T06:26:17.877Z,69.62
2018-12-19T06:26:52.461Z,69.92
2018-12-19T06:27:27.100Z,69.39
2018-12-19T06:28:01.790Z,69.24
2018-12-19T06:28:36.402Z,69.98
2018-12-19T06:29:10.992Z,70.03
2018-12-19T06:29:45.630Z,69.49
2018-12-19T06:30:20.564Z,69.60
2018-12-19T06:30:55.218Z,70.30
2018-12-19T06:31:29.865Z,68.94
2018-12-19T06:32:05.006Z,70.44
2018-12-19T06:32:40.005Z,69.61
2018-12-19T06:33:14.632Z,70.03
2018-12-19T06:33:49.624Z,69.40
2018-12-19T06:34:24.220Z,68.92
2018-12-19T06:34:58.842Z,68.48
2018-12-19T06:35:33.476Z,68.39
2018-12-19T06:36:08.101Z,68.98
2018-12-19T06:36:42.722Z,68.82
2018-12-19T06:37:17.370Z,69.41
2018-12-19T06:37:52.083Z,68.24
2018-12-19T06:38:26.717Z,68.07
2018-12-19T06:39:01.779Z,67.57
2018-12-19T06:39:36.468Z,68.04
2018-12-19T06:40:11.156Z,68.44
2018-12-19T06:40:45.787Z,68.69
2018-12-19T06:41:20.502Z,67.37
2018-12-19T06:41:55.105Z,67.85
2018-12-19T06:42:29.767Z,68.18
2018-12-19T06:43:04.962Z,67.41
2018-12-19T06:43:40.269Z,67.92
2018-12-19T06:44:44.597Z,67.94
2018-12-19T06:45:19.273Z,68.14
2018-12-19T06:45:54.202Z,67.95
2018-12-19T06:46:28.918Z,67.63
2018-12-19T06:47:04.075Z,67.29
2018-12-19T06:47:38.688Z,68.22
2018-12-19T06:48:13.278Z,67.27
2018-12-19T06:48:47.885Z,67.68
2018-12-19T06:49:22.477Z,68.14
2018-12-19T06:49:57.225Z,67.86
2018-12-19T06:50:32.133Z,68.13
2018-12-19T06:51:06.859Z,67.26
2018-12-19T06:51:41.481Z,66.59
2018-12-19T06:52:16.172Z,66.87
2018-12-19T06:52:50.768Z,67.09
2018-12-19T06:53:25.381Z,67.27
2018-12-19T06:54:00.129Z,67.33
2018-12-19T06:54:34.770Z,67.84
2018-12-19T06:55:09.410Z,68.59
2018-12-19T06:55:44.613Z,68.37
2018-12-19T06:56:19.269Z,68.76
2018-12-19T06:56:53.877Z,69.00
2018-12-19T06:57:28.593Z,67.63
2018-12-19T06:58:03.256Z,67.20
2018-12-19T06:58:37.884Z,68.75
2018-12-19T06:59:12.504Z,68.19
2018-12-19T06:59:47.223Z,67.12
2018-12-19T07:00:21.821Z,66.51
2018-12-19T07:00:56.416Z,67.29
2018-12-19T07:01:31.400Z,66.93
2018-12-19T07:02:06.120Z,66.22
2018-12-19T07:02:40.798Z,67.02
2018-12-19T07:03:15.409Z,68.31
2018-12-19T07:03:50.044Z,68.06
2018-12-19T07:04:24.670Z,67.63
2018-12-19T07:04:59.438Z,68.09
2018-12-19T07:05:34.536Z,67.79
2018-12-19T07:06:09.332Z,66.59
2018-12-19T07:06:43.972Z,67.55
2018-12-19T07:07:18.642Z,65.88
2018-12-19T07:07:53.289Z,65.86
2018-12-19T07:08:28.125Z,66.06
2018-12-19T07:09:04.086Z,65.33
2018-12-19T07:09:38.732Z,65.26
2018-12-19T07:10:13.332Z,66.50
2018-12-19T07:10:48.103Z,65.64
2018-12-19T07:11:24.045Z,64.74
2018-12-19T07:11:58.732Z,65.40
2018-12-19T07:12:33.469Z,65.13
2018-12-19T07:13:08.135Z,65.56
2018-12-19T07:13:42.778Z,65.31
2018-12-19T07:14:17.392Z,65.83
2018-12-19T07:14:52.361Z,66.10
2018-12-19T07:15:27.103Z,65.51
2018-12-19T07:16:01.744Z,65.38
2018-12-19T07:16:36.569Z,65.03
2018-12-19T07:17:11.193Z,64.82
2018-12-19T07:17:46.180Z,65.08
2018-12-19T07:18:20.801Z,64.91
2018-12-19T07:18:55.594Z,64.71
2018-12-19T07:19:30.553Z,64.78
2018-12-19T07:20:06.295Z,65.01
2018-12-19T07:20:40.946Z,65.10
2018-12-19T07:21:15.536Z,65.83
2018-12-19T07:21:50.253Z,65.70
2018-12-19T07:22:24.895Z,65.62
2018-12-19T07:22:59.669Z,65.11
2018-12-19T07:23:34.430Z,64.86
2018-12-19T07:24:09.173Z,65.92
2018-12-19T07:24:43.874Z,65.75
2018-12-19T07:25:18.654Z,65.80
2018-12-19T07:25:53.254Z,65.45
2018-12-19T07:26:28.473Z,65.20
2018-12-19T07:27:03.650Z,65.24
2018-12-19T07:27:38.222Z,64.89
2018-12-19T07:28:12.856Z,64.61
2018-12-19T07:28:47.514Z,65.75